Time;durP1;ratioP1;P1;durP2;ratioP2;P2;SDS_P1;SDS_P2;PMS_P1;PMS_P2;Temp;Humidity;BMP_temperature;BMP_pressure;BME280_temperature;BME280_humidity;BME280_pressure;Samples;Min_cycle;Max_cycle;Signal;HPM_P1;HPM_P2
2022/07/16 00:01:22;;;;;;;1.38;1.27;;;;;;;13.53;72.14;101438.19;4931028;28;20348;-69
2022/07/16 00:03:52;;;;;;;1.30;1.20;;;;;;;13.49;72.35;101438.63;4949969;28;20275;-69
2022/07/16 00:06:17;;;;;;;3.88;1.33;;;;;;;13.46;72.51;101430.94;4948874;28;20083;-68
2022/07/16 00:08:42;;;;;;;2.38;1.45;;;;;;;13.53;72.43;101429.41;4949475;28;20026;-68
2022/07/16 00:11:08;;;;;;;1.52;1.35;;;;;;;13.54;72.28;101436.41;4967941;28;20006;-68
2022/07/16 00:13:33;;;;;;;1.45;1.23;;;;;;;13.57;71.88;101442.25;4972531;28;20214;-68
2022/07/16 00:15:59;;;;;;;3.67;1.50;;;;;;;13.45;72.27;101439.88;4963825;28;20033;-68
2022/07/16 00:21:08;;;;;;;1.33;1.23;;;;;;;13.39;72.57;101434.13;4974585;28;20005;-68
2022/07/16 00:23:33;;;;;;;3.00;1.35;;;;;;;13.43;72.62;101441.84;4985498;28;20074;-69
2022/07/16 00:25:59;;;;;;;3.65;1.45;;;;;;;13.29;73.33;101441.22;4970900;28;20273;-68
2022/07/16 00:28:24;;;;;;;1.38;1.25;;;;;;;13.34;72.97;101444.31;4950944;28;20446;-70
2022/07/16 00:30:50;;;;;;;1.90;1.20;;;;;;;13.39;72.98;101438.63;4990442;28;20020;-68
2022/07/16 00:33:15;;;;;;;1.27;1.17;;;;;;;13.37;72.81;101441.41;4967691;28;20885;-68
2022/07/16 00:35:40;;;;;;;2.88;1.27;;;;;;;13.34;73.24;101449.63;4986821;28;20017;-68
2022/07/16 00:38:07;;;;;;;2.90;1.42;;;;;;;13.36;72.84;101450.38;4969758;28;20002;-68
2022/07/16 00:40:33;;;;;;;3.38;1.20;;;;;;;13.33;73.04;101445.28;4969330;28;20519;-69
2022/07/16 00:42:59;;;;;;;1.30;1.20;;;;;;;13.51;72.77;101449.97;4968372;28;20030;-69
2022/07/16 00:45:25;;;;;;;2.78;1.30;;;;;;;13.53;72.65;101434.72;4957733;28;20006;-69
2022/07/16 00:47:50;;;;;;;1.85;1.23;;;;;;;13.53;72.51;101440.88;4952718;28;20026;-66
2022/07/16 00:50:16;;;;;;;3.85;1.60;;;;;;;13.48;72.71;101443.13;4975886;28;20002;-69
2022/07/16 00:52:41;;;;;;;4.43;1.30;;;;;;;13.44;72.82;101431.06;4956210;28;20730;-70
2022/07/16 00:55:07;;;;;;;1.50;1.40;;;;;;;13.39;73.12;101439.44;4977356;28;20907;-69
2022/07/16 00:57:32;;;;;;;1.50;1.40;;;;;;;13.41;72.86;101442.00;5002998;28;20052;-68
2022/07/16 00:59:58;;;;;;;1.65;1.30;;;;;;;13.43;72.54;101433.88;5003482;28;20720;-68
2022/07/16 01:02:23;;;;;;;1.60;1.50;;;;;;;13.37;72.50;101432.63;4956498;28;20021;-68
2022/07/16 01:04:48;;;;;;;3.10;1.23;;;;;;;13.31;72.77;101444.59;4986696;28;20029;-68
2022/07/16 01:07:14;;;;;;;1.38;1.30;;;;;;;13.36;72.55;101447.72;4990380;28;20005;-69
2022/07/16 01:09:39;;;;;;;1.58;1.38;;;;;;;13.38;72.12;101444.91;4973751;28;20060;-68
2022/07/16 01:12:05;;;;;;;1.60;1.35;;;;;;;13.29;72.79;101443.88;4989358;28;20771;-67
2022/07/16 01:14:31;;;;;;;2.08;1.10;;;;;;;13.20;73.14;101439.41;4973026;28;20030;-68
2022/07/16 01:16:56;;;;;;;2.63;1.30;;;;;;;13.11;73.30;101446.34;4967121;28;20351;-68
2022/07/16 01:19:22;;;;;;;1.48;1.13;;;;;;;13.24;73.14;101440.81;4985029;28;20014;-67
2022/07/16 01:21:47;;;;;;;3.40;1.30;;;;;;;13.32;73.14;101445.44;4939629;28;20206;-68
2022/07/16 01:24:12;;;;;;;2.10;1.45;;;;;;;13.27;72.65;101439.69;4968985;28;20500;-67
2022/07/16 01:26:38;;;;;;;1.17;1.17;;;;;;;13.20;72.78;101436.75;4970742;28;20030;-68
2022/07/16 01:29:03;;;;;;;1.42;1.30;;;;;;;13.15;72.95;101436.31;4968869;28;20014;-68
2022/07/16 01:31:29;;;;;;;2.53;1.20;;;;;;;13.16;72.89;101438.84;4982072;28;20499;-69
2022/07/16 01:36:41;;;;;;;1.63;1.30;;;;;;;13.12;73.46;101449.88;4977757;28;20032;-69
2022/07/16 01:39:06;;;;;;;1.42;1.30;;;;;;;13.08;73.22;101451.94;5009183;28;20029;-66
2022/07/16 01:41:32;;;;;;;3.85;1.23;;;;;;;13.04;73.33;101448.75;4972352;28;20699;-68
2022/07/16 01:43:57;;;;;;;1.75;1.10;;;;;;;13.07;73.33;101444.94;4968090;28;20156;-67
2022/07/16 01:46:23;;;;;;;2.42;1.33;;;;;;;13.00;73.40;101450.00;4969185;28;20076;-68
2022/07/16 01:48:48;;;;;;;1.35;1.30;;;;;;;13.02;73.50;101447.19;4960016;28;20028;-67
2022/07/16 01:51:13;;;;;;;1.70;1.60;;;;;;;12.97;73.66;101455.56;4995156;28;20010;-68
2022/07/16 01:53:39;;;;;;;2.20;1.30;;;;;;;12.89;73.90;101442.13;4977453;28;20037;-66
2022/07/16 01:56:04;;;;;;;1.58;1.33;;;;;;;12.81;73.96;101444.59;4977735;28;20034;-68
2022/07/16 01:58:30;;;;;;;1.92;1.33;;;;;;;12.80;74.21;101454.38;4992275;28;20010;-69
2022/07/16 02:00:56;;;;;;;3.60;1.65;;;;;;;12.79;74.19;101446.53;4991388;28;20119;-69
2022/07/16 02:03:21;;;;;;;1.85;1.23;;;;;;;12.71;74.56;101442.75;4976505;28;20018;-67
2022/07/16 02:05:47;;;;;;;1.95;1.52;;;;;;;12.69;74.43;101441.19;4976248;28;20009;-69
2022/07/16 02:08:12;;;;;;;1.50;1.40;;;;;;;12.56;75.02;101440.59;4979160;28;20025;-69
2022/07/16 02:10:38;;;;;;;3.05;1.33;;;;;;;12.56;75.29;101436.09;4991335;28;20002;-69
2022/07/16 02:13:03;;;;;;;1.58;1.48;;;;;;;12.63;74.92;101433.75;4976323;28;20198;-67
2022/07/16 02:15:29;;;;;;;1.40;1.30;;;;;;;12.67;75.06;101433.34;4972647;28;20018;-69
2022/07/16 02:17:54;;;;;;;1.35;1.25;;;;;;;12.59;75.42;101430.53;4994425;28;20393;-69
2022/07/16 02:20:20;;;;;;;2.53;1.20;;;;;;;12.63;75.44;101431.94;4973158;28;20089;-69
2022/07/16 02:22:45;;;;;;;2.05;1.40;;;;;;;12.59;75.38;101435.84;4983996;28;20456;-68
2022/07/16 02:25:10;;;;;;;2.35;1.33;;;;;;;12.63;75.31;101429.28;4984849;28;20026;-68
2022/07/16 02:27:36;;;;;;;1.50;1.40;;;;;;;12.62;75.21;101424.97;4970400;28;20582;-68
2022/07/16 02:30:02;;;;;;;1.75;1.45;;;;;;;12.73;74.94;101424.00;4967402;28;20478;-68
2022/07/16 02:32:28;;;;;;;2.35;1.80;;;;;;;12.83;74.86;101429.38;4970899;28;20352;-67
2022/07/16 02:34:53;;;;;;;1.58;1.50;;;;;;;12.86;75.01;101431.75;4968476;28;20041;-66
2022/07/16 02:37:19;;;;;;;2.70;1.50;;;;;;;12.92;74.63;101431.22;4983816;28;20450;-68
2022/07/16 02:39:44;;;;;;;2.78;1.50;;;;;;;13.00;74.69;101435.84;4986365;28;20029;-66
2022/07/16 02:42:09;;;;;;;3.97;1.55;;;;;;;12.94;74.52;101429.25;4969940;28;20439;-68
2022/07/16 02:44:35;;;;;;;1.80;1.60;;;;;;;13.00;74.49;101428.72;4961157;28;20423;-66
2022/07/16 02:47:00;;;;;;;3.35;1.58;;;;;;;12.92;74.57;101425.91;4986956;28;20021;-68
2022/07/16 02:49:26;;;;;;;1.77;1.50;;;;;;;12.99;74.45;101429.69;4985776;28;20079;-66
2022/07/16 02:51:51;;;;;;;3.70;1.60;;;;;;;12.99;74.61;101428.88;4973171;28;20417;-68
2022/07/16 02:54:16;;;;;;;1.63;1.23;;;;;;;13.08;73.88;101435.19;4966220;28;20037;-66
2022/07/16 02:56:42;;;;;;;1.73;1.63;;;;;;;13.15;73.99;101433.66;4953480;28;20483;-68
2022/07/16 02:59:07;;;;;;;1.55;1.45;;;;;;;13.16;73.57;101428.19;4967401;28;20033;-65
2022/07/16 03:01:32;;;;;;;3.88;1.55;;;;;;;13.18;74.00;101436.91;4980933;28;20006;-69
2022/07/16 03:03:58;;;;;;;1.60;1.50;;;;;;;13.20;73.92;101436.75;4968156;28;20029;-64
2022/07/16 03:06:23;;;;;;;1.77;1.45;;;;;;;13.13;74.18;101440.91;4967798;28;20290;-68
2022/07/16 03:08:50;;;;;;;1.60;1.50;;;;;;;13.08;74.45;101436.00;4951453;28;20390;-66
2022/07/16 03:11:16;;;;;;;1.70;1.60;;;;;;;13.10;74.68;101446.50;4981185;28;20230;-68
2022/07/16 03:13:41;;;;;;;3.13;1.63;;;;;;;13.04;75.01;101438.13;4969582;28;20868;-68
2022/07/16 03:16:07;;;;;;;1.30;1.30;;;;;;;13.07;75.13;101444.94;4964950;28;20018;-68
2022/07/16 03:18:32;;;;;;;1.70;1.60;;;;;;;13.23;74.78;101445.28;4972498;28;20259;-68
2022/07/16 03:20:57;;;;;;;1.60;1.50;;;;;;;13.21;75.08;101441.94;4973515;28;20010;-68
2022/07/16 03:23:23;;;;;;;1.90;1.80;;;;;;;13.21;74.89;101457.00;4949300;28;20272;-68
2022/07/16 03:25:48;;;;;;;2.72;1.60;;;;;;;13.36;74.33;101460.16;4933519;28;20791;-69
2022/07/16 03:28:13;;;;;;;1.55;1.45;;;;;;;13.31;74.67;101455.25;4965917;28;20035;-66
2022/07/16 03:30:39;;;;;;;2.63;1.65;;;;;;;13.26;74.64;101452.13;4947216;28;20011;-69
2022/07/16 03:33:04;;;;;;;1.65;1.42;;;;;;;13.33;74.19;101457.75;4968865;28;20036;-66
2022/07/16 03:35:30;;;;;;;2.70;1.73;;;;;;;13.35;73.85;101455.81;4950372;28;20029;-68
2022/07/16 03:40:39;;;;;;;2.15;1.73;;;;;;;13.43;74.01;101455.97;4973131;28;20009;-69
2022/07/16 03:43:05;;;;;;;1.50;1.40;;;;;;;13.45;74.02;101461.16;4947340;28;20033;-69
2022/07/16 03:45:30;;;;;;;1.83;1.60;;;;;;;13.44;74.05;101459.47;4980306;28;20350;-68
2022/07/16 03:47:55;;;;;;;1.65;1.55;;;;;;;13.49;73.93;101463.38;4980978;28;20324;-67
2022/07/16 03:50:21;;;;;;;1.50;1.40;;;;;;;13.56;74.14;101461.03;4998101;28;20271;-68
2022/07/16 03:52:47;;;;;;;1.67;1.60;;;;;;;13.58;73.74;101459.09;4995312;28;20132;-68
2022/07/16 03:55:12;;;;;;;1.60;1.58;;;;;;;13.63;73.31;101456.81;4952860;28;20217;-68
2022/07/16 03:57:38;;;;;;;1.45;1.40;;;;;;;13.59;73.34;101460.75;4970246;28;20022;-66
2022/07/16 04:00:04;;;;;;;1.60;1.40;;;;;;;13.60;73.17;101457.09;4969723;28;20503;-68
2022/07/16 04:02:30;;;;;;;1.58;1.38;;;;;;;13.66;73.44;101464.53;4959463;28;20022;-68
2022/07/16 04:04:55;;;;;;;1.83;1.30;;;;;;;13.71;73.05;101451.66;4960383;28;20910;-68
2022/07/16 04:07:20;;;;;;;3.45;1.73;;;;;;;13.76;73.17;101447.75;4949957;28;20025;-68
2022/07/16 04:09:46;;;;;;;2.35;1.50;;;;;;;13.77;72.98;101452.09;4949083;28;20006;-69
2022/07/16 04:12:11;;;;;;;4.18;1.52;;;;;;;13.78;72.42;101443.97;4968796;28;20003;-67
2022/07/16 04:14:37;;;;;;;2.97;1.85;;;;;;;13.90;71.77;101447.31;4961033;28;20020;-68
2022/07/16 04:17:02;;;;;;;2.42;1.60;;;;;;;13.92;71.96;101453.34;4988689;28;20037;-70
2022/07/16 04:19:27;;;;;;;2.72;1.75;;;;;;;13.99;72.05;101454.44;4993919;28;20257;-68
2022/07/16 04:21:53;;;;;;;1.70;1.60;;;;;;;14.09;71.58;101465.09;4988351;28;20022;-69
2022/07/16 04:24:18;;;;;;;2.15;1.65;;;;;;;14.15;71.27;101472.50;4969346;28;20848;-68
2022/07/16 04:26:43;;;;;;;1.73;1.60;;;;;;;14.07;70.65;101473.22;4990994;28;20014;-68
2022/07/16 04:29:09;;;;;;;2.13;1.60;;;;;;;14.07;70.59;101467.03;4971495;28;20017;-68
2022/07/16 04:31:34;;;;;;;2.70;1.55;;;;;;;14.11;71.23;101470.25;4971000;28;20025;-70
2022/07/16 04:34:00;;;;;;;2.28;1.50;;;;;;;14.23;70.97;101479.78;4969202;28;20813;-69
2022/07/16 04:36:25;;;;;;;3.92;1.48;;;;;;;14.23;71.08;101475.28;4989817;28;20102;-69
2022/07/16 04:38:50;;;;;;;3.33;1.73;;;;;;;14.27;71.47;101478.50;4955061;28;20602;-69
2022/07/16 04:41:16;;;;;;;3.15;1.70;;;;;;;14.28;71.37;101472.19;4971082;28;20002;-68
2022/07/16 04:43:41;;;;;;;2.95;1.50;;;;;;;14.29;71.16;101479.19;4968024;28;20041;-68
2022/07/16 04:46:07;;;;;;;1.70;1.60;;;;;;;14.32;71.16;101476.25;4982974;28;20777;-69
2022/07/16 04:48:32;;;;;;;1.73;1.60;;;;;;;14.46;70.70;101469.63;4986346;28;20028;-69
2022/07/16 04:50:57;;;;;;;2.42;1.70;;;;;;;14.48;70.32;101474.81;4988279;28;20013;-69
2022/07/16 04:53:23;;;;;;;2.78;1.60;;;;;;;14.57;70.47;101476.63;4994624;28;20013;-68
2022/07/16 04:55:48;;;;;;;1.98;1.67;;;;;;;14.60;70.00;101476.31;4994614;28;20021;-68
2022/07/16 04:58:14;;;;;;;3.20;1.60;;;;;;;14.62;69.73;101481.50;4994012;28;20347;-68
2022/07/16 05:00:40;;;;;;;2.15;1.45;;;;;;;14.63;70.21;101480.56;4985236;28;20014;-67
2022/07/16 05:03:06;;;;;;;2.70;1.67;;;;;;;14.67;70.75;101476.63;4971115;28;20026;-67
2022/07/16 05:05:33;;;;;;;1.95;1.80;;;;;;;14.75;70.42;101469.56;4935850;28;20677;-68
2022/07/16 05:08:00;;;;;;;4.57;1.50;;;;;;;14.84;70.63;101461.69;4971687;28;20063;-68
2022/07/16 05:10:25;;;;;;;1.58;1.48;;;;;;;14.83;70.01;101462.66;4938260;28;20129;-66
2022/07/16 05:12:51;;;;;;;2.10;1.55;;;;;;;14.85;70.34;101453.53;4954190;28;20011;-69
2022/07/16 05:15:17;;;;;;;1.85;1.65;;;;;;;14.93;70.37;101466.09;4962599;28;20029;-67
2022/07/16 05:17:42;;;;;;;3.20;1.67;;;;;;;15.02;69.18;101462.56;4984096;28;20040;-68
2022/07/16 05:20:08;;;;;;;3.78;1.50;;;;;;;15.10;69.23;101462.66;4955759;28;20019;-68
2022/07/16 05:22:34;;;;;;;4.20;1.80;;;;;;;15.21;69.23;101463.44;4962865;28;20013;-68
2022/07/16 05:24:59;;;;;;;3.63;1.63;;;;;;;15.32;68.67;101476.56;4991279;28;20006;-68
2022/07/16 05:27:25;;;;;;;2.13;1.95;;;;;;;15.40;68.53;101475.84;4972051;28;20026;-69
2022/07/16 05:29:50;;;;;;;1.77;1.65;;;;;;;15.44;68.19;101475.38;4979077;28;21006;-69
2022/07/16 05:32:15;;;;;;;2.28;1.90;;;;;;;15.51;67.82;101472.09;4964345;28;20007;-68
2022/07/16 05:34:41;;;;;;;1.95;1.75;;;;;;;15.49;67.54;101479.41;4953203;28;20502;-68
2022/07/16 05:37:06;;;;;;;2.35;1.65;;;;;;;15.55;67.57;101476.13;4967859;28;20442;-68
2022/07/16 05:39:31;;;;;;;3.97;1.70;;;;;;;15.68;67.23;101473.94;4952759;28;20977;-68
2022/07/16 05:41:57;;;;;;;3.88;1.73;;;;;;;15.74;67.20;101475.16;4934631;28;20503;-68
2022/07/16 05:44:23;;;;;;;2.20;1.88;;;;;;;15.73;66.25;101479.63;4921139;28;20025;-68
2022/07/16 05:46:48;;;;;;;1.80;1.70;;;;;;;15.83;66.18;101476.09;4948365;28;20157;-65
2022/07/16 05:49:13;;;;;;;2.10;1.90;;;;;;;15.86;66.19;101479.28;4968607;28;20002;-68
2022/07/16 05:51:39;;;;;;;2.75;1.90;;;;;;;15.98;66.37;101479.91;4974429;28;20088;-67
2022/07/16 05:54:04;;;;;;;2.90;1.70;;;;;;;15.92;66.24;101472.50;4949990;28;20504;-69
2022/07/16 05:56:30;;;;;;;2.33;2.13;;;;;;;15.93;66.10;101479.50;4967612;28;20030;-66
2022/07/16 05:59:01;;;;;;;3.03;1.80;;;;;;;15.93;65.80;101484.84;4952373;28;20177;-69
2022/07/16 06:01:27;;;;;;;4.40;1.92;;;;;;;16.05;66.29;101483.63;4948834;28;20072;-66
2022/07/16 06:03:52;;;;;;;4.60;2.03;;;;;;;16.21;66.26;101487.41;4951071;28;20536;-69
2022/07/16 06:06:18;;;;;;;2.83;1.92;;;;;;;16.32;64.81;101484.50;4948146;28;20030;-66
2022/07/16 06:08:43;;;;;;;3.03;2.47;;;;;;;16.41;64.40;101482.72;4950315;28;20493;-68
2022/07/16 06:11:09;;;;;;;3.80;2.17;;;;;;;16.49;64.13;101485.44;4963446;28;20014;-67
2022/07/16 06:13:36;;;;;;;2.72;2.00;;;;;;;16.50;64.18;101492.47;4962875;28;20029;-69
2022/07/16 06:16:02;;;;;;;2.85;2.03;;;;;;;16.60;63.52;101500.38;4948374;28;20025;-68
2022/07/16 06:18:27;;;;;;;6.53;2.10;;;;;;;16.77;64.01;101499.47;4981533;28;20089;-67
2022/07/16 06:20:52;;;;;;;2.72;2.10;;;;;;;16.79;63.32;101502.81;4965485;28;20010;-70
2022/07/16 06:23:18;;;;;;;3.72;2.00;;;;;;;17.00;62.86;101506.94;4976391;28;20065;-65
2022/07/16 06:25:43;;;;;;;2.30;2.10;;;;;;;16.95;61.63;101506.56;4956056;28;20025;-68
2022/07/16 06:28:09;;;;;;;6.45;2.08;;;;;;;16.93;62.45;101514.75;4969537;28;20627;-65
2022/07/16 06:30:34;;;;;;;5.40;2.08;;;;;;;16.88;63.15;101509.06;4971310;28;20010;-69
2022/07/16 06:32:59;;;;;;;2.30;2.10;;;;;;;16.88;63.08;101518.88;4970026;28;20026;-66
2022/07/16 06:35:25;;;;;;;2.10;1.90;;;;;;;16.90;64.03;101519.59;4987104;28;20044;-67
2022/07/16 06:37:50;;;;;;;3.72;2.17;;;;;;;16.82;63.54;101523.03;4985889;28;20030;-66
2022/07/16 06:40:16;;;;;;;3.28;2.10;;;;;;;16.82;63.99;101518.53;4987432;28;20523;-69
2022/07/16 06:42:41;;;;;;;2.45;2.00;;;;;;;16.88;64.11;101518.88;4969443;28;20067;-65
2022/07/16 06:45:07;;;;;;;4.22;2.40;;;;;;;16.95;62.61;101527.97;4987574;28;20322;-69
2022/07/16 06:47:32;;;;;;;2.83;2.20;;;;;;;17.00;61.71;101531.00;4957844;28;20018;-68
2022/07/16 06:49:58;;;;;;;4.18;2.20;;;;;;;17.14;61.67;101535.75;4976812;28;20546;-69
2022/07/16 06:52:23;;;;;;;4.75;2.40;;;;;;;17.23;61.15;101546.47;4969188;28;20802;-67
2022/07/16 06:54:48;;;;;;;2.90;2.25;;;;;;;17.36;63.49;101530.84;4990924;28;20921;-68
2022/07/16 06:57:14;;;;;;;2.83;1.58;;;;;;;17.34;65.00;101524.78;4977560;28;20021;-70
2022/07/16 06:59:39;;;;;;;1.90;1.80;;;;;;;17.54;65.46;101533.38;4962821;28;20386;-69
2022/07/16 07:02:04;;;;;;;6.32;2.50;;;;;;;17.57;64.14;101526.84;4988541;28;20005;-69
2022/07/16 07:04:30;;;;;;;6.88;2.38;;;;;;;17.69;60.69;101530.91;4959551;28;20076;-69
2022/07/16 07:06:55;;;;;;;5.35;2.60;;;;;;;17.70;58.81;101524.56;4975579;28;20834;-68
2022/07/16 07:09:21;;;;;;;7.10;2.90;;;;;;;17.91;58.92;101547.34;4958339;28;20023;-69
2022/07/16 07:11:46;;;;;;;6.70;2.63;;;;;;;18.04;58.52;101538.88;4990268;28;20101;-69
2022/07/16 07:14:11;;;;;;;3.28;2.78;;;;;;;18.21;58.10;101543.22;4996748;28;20037;-69
2022/07/16 07:16:37;;;;;;;3.28;2.97;;;;;;;18.26;58.01;101548.06;4965704;28;20452;-69
2022/07/16 07:19:03;;;;;;;4.93;2.50;;;;;;;18.34;58.06;101550.72;4964809;28;20022;-68
2022/07/16 07:21:28;;;;;;;7.07;2.53;;;;;;;18.35;57.70;101547.06;4970625;28;20352;-69
2022/07/16 07:23:54;;;;;;;7.30;3.10;;;;;;;18.50;57.07;101550.72;5003112;28;20024;-66
2022/07/16 07:26:19;;;;;;;4.30;2.53;;;;;;;18.61;57.19;101540.66;4969287;28;20946;-68
2022/07/16 07:28:44;;;;;;;3.97;2.70;;;;;;;18.76;58.65;101551.53;4990199;28;20029;-65
2022/07/16 07:31:10;;;;;;;4.82;3.03;;;;;;;18.92;58.40;101550.69;4969936;28;20095;-69
2022/07/16 07:33:38;;;;;;;5.15;3.40;;;;;;;19.00;57.65;101550.66;4961675;28;20860;-68
2022/07/16 07:36:04;;;;;;;3.55;3.20;;;;;;;19.06;57.20;101549.94;4966722;28;20037;-67
2022/07/16 07:38:30;;;;;;;5.43;3.15;;;;;;;19.15;58.43;101548.06;4974930;28;20583;-70
2022/07/16 07:40:55;;;;;;;4.72;4.10;;;;;;;19.11;57.64;101547.59;4989196;28;20470;-66
2022/07/16 07:43:20;;;;;;;4.70;4.28;;;;;;;19.07;57.36;101545.44;4966332;28;21041;-69
2022/07/16 07:45:46;;;;;;;4.07;3.67;;;;;;;19.28;58.58;101550.22;4986150;28;20006;-69
2022/07/16 07:48:11;;;;;;;4.63;3.30;;;;;;;19.28;58.17;101551.03;4939197;28;20818;-69
2022/07/16 07:50:37;;;;;;;7.60;3.45;;;;;;;19.37;59.51;101552.69;4969486;28;20575;-71
2022/07/16 07:53:03;;;;;;;4.28;3.40;;;;;;;19.29;57.81;101554.56;4970676;28;20071;-69
2022/07/16 07:55:28;;;;;;;5.65;3.50;;;;;;;19.45;57.92;101554.47;4971888;28;20792;-68
2022/07/16 07:57:54;;;;;;;5.05;3.45;;;;;;;19.54;56.70;101557.97;4975321;28;20026;-68
2022/07/16 08:00:19;;;;;;;4.85;3.90;;;;;;;19.50;56.19;101546.75;4965731;28;20583;-69
2022/07/16 08:02:45;;;;;;;4.68;3.15;;;;;;;19.37;57.35;101551.84;4975493;28;20408;-67
2022/07/16 08:05:10;;;;;;;3.80;3.10;;;;;;;19.60;57.53;101551.91;4945350;28;20628;-71
2022/07/16 08:07:36;;;;;;;2.88;2.28;;;;;;;19.93;56.93;101550.88;4986047;28;20945;-65
2022/07/16 08:10:02;;;;;;;5.90;3.63;;;;;;;20.20;57.61;101552.19;4978434;28;20075;-68
2022/07/16 08:12:27;;;;;;;3.80;3.50;;;;;;;20.35;56.60;101550.38;4980443;28;20254;-70
2022/07/16 08:14:52;;;;;;;3.15;2.95;;;;;;;20.39;56.48;101550.81;4966974;28;20048;-69
2022/07/16 08:17:18;;;;;;;5.40;3.33;;;;;;;20.44;56.10;101556.50;4998740;28;20030;-70
2022/07/16 08:19:43;;;;;;;4.68;3.25;;;;;;;20.19;55.46;101551.34;4982515;28;20107;-70
2022/07/16 08:22:09;;;;;;;3.35;3.03;;;;;;;20.19;56.27;101551.34;4969660;28;20276;-70
2022/07/16 08:27:18;;;;;;;;;;;;;;;20.37;56.14;101559.06;4976102;28;20200;-69
2022/07/16 08:29:43;;;;;;;3.33;3.20;;;;;;;20.82;56.91;101556.47;4969899;28;19901;-70
2022/07/16 08:32:09;;;;;;;4.32;3.92;;;;;;;20.87;54.99;101559.47;4982783;28;20010;-68
2022/07/16 08:34:34;;;;;;;3.45;3.25;;;;;;;20.86;55.06;101560.47;4986714;28;20094;-68
2022/07/16 08:36:59;;;;;;;4.15;3.72;;;;;;;20.81;55.48;101554.81;4959120;28;20904;-68
2022/07/16 08:39:25;;;;;;;3.85;3.60;;;;;;;20.73;56.06;101553.06;4992074;28;20036;-69
2022/07/16 08:41:50;;;;;;;3.80;3.40;;;;;;;20.54;55.93;101562.44;4999185;28;20014;-70
2022/07/16 08:44:16;;;;;;;4.28;3.97;;;;;;;20.39;57.07;101558.88;4985818;28;20052;-69
2022/07/16 08:46:42;;;;;;;6.15;3.80;;;;;;;20.38;55.76;101568.00;4990692;28;20013;-68
2022/07/16 08:49:07;;;;;;;4.20;3.50;;;;;;;20.42;56.05;101561.22;4961889;28;20121;-67
2022/07/16 08:51:37;;;;;;;4.55;3.95;;;;;;;20.66;55.35;101568.22;4952146;28;20550;-70
2022/07/16 08:54:13;;;;;;;4.10;3.80;;;;;;;20.82;55.65;101578.00;4968153;28;20199;-69
2022/07/16 08:56:39;;;;;;;4.63;4.32;;;;;;;20.67;56.23;101569.94;4959033;28;20015;-68
2022/07/16 08:59:05;;;;;;;3.95;3.75;;;;;;;20.64;56.05;101580.19;4968470;28;20453;-70
2022/07/16 09:01:31;;;;;;;3.50;3.17;;;;;;;20.45;55.51;101585.06;4989500;28;20471;-69
2022/07/16 09:03:57;;;;;;;3.00;2.80;;;;;;;20.39;56.17;101588.44;4971376;28;20889;-68
2022/07/16 09:06:24;;;;;;;2.40;2.20;;;;;;;20.44;55.04;101593.31;4988891;28;20519;-69
2022/07/16 09:08:50;;;;;;;2.88;1.80;;;;;;;20.53;55.42;101585.00;4972419;28;20551;-69
2022/07/16 09:11:25;;;;;;;1.90;1.80;;;;;;;20.87;55.22;101597.13;4971138;28;20760;-68
2022/07/16 09:14:07;;;;;;;2.10;1.90;;;;;;;21.26;53.73;101604.09;4967765;28;20648;-66
2022/07/16 09:16:38;;;;;;;1.60;1.60;;;;;;;20.92;54.25;101604.63;4946070;28;20780;-68
2022/07/16 09:19:23;;;;;;;2.15;1.40;;;;;;;20.83;54.36;101608.44;4954755;28;20069;-68
2022/07/16 09:22:08;;;;;;;2.15;1.30;;;;;;;20.77;53.63;101615.38;4986602;28;20880;-68
2022/07/16 09:24:44;;;;;;;2.40;1.00;;;;;;;20.75;49.33;101620.94;4989105;28;20338;-68
2022/07/16 09:27:23;;;;;;;0.80;0.80;;;;;;;20.58;48.35;101617.53;4967722;28;20401;-69
2022/07/16 09:29:58;;;;;;;1.05;0.70;;;;;;;20.71;48.71;101624.19;4953248;28;20754;-69
2022/07/16 09:32:42;;;;;;;1.20;0.80;;;;;;;20.90;48.95;101623.66;4972918;28;20876;-68
2022/07/16 09:35:10;;;;;;;0.90;0.90;;;;;;;21.20;47.82;101629.06;4988355;28;20836;-69
2022/07/16 09:37:54;;;;;;;0.80;0.80;;;;;;;21.45;46.87;101620.69;4974973;28;20014;-66
2022/07/16 09:40:32;;;;;;;1.45;1.20;;;;;;;21.88;46.86;101619.97;4992114;28;20014;-69
2022/07/16 09:42:59;;;;;;;0.90;0.90;;;;;;;22.46;45.11;101617.25;4971672;28;20196;-69
2022/07/16 09:45:24;;;;;;;1.83;0.90;;;;;;;22.76;45.32;101626.00;4968604;28;20018;-70
2022/07/16 09:47:50;;;;;;;0.93;0.70;;;;;;;22.93;45.59;101629.25;4970142;28;20455;-71
2022/07/16 09:50:15;;;;;;;1.48;1.33;;;;;;;22.78;42.44;101632.03;4971495;28;20038;-68
2022/07/16 09:52:40;;;;;;;0.90;0.90;;;;;;;22.51;42.76;101624.78;4973172;28;20398;-69
2022/07/16 09:55:06;;;;;;;0.80;0.70;;;;;;;22.60;41.87;101629.00;4978307;28;20041;-68
2022/07/16 09:57:32;;;;;;;0.82;0.82;;;;;;;23.46;41.44;101630.59;4972392;28;20317;-69
2022/07/16 09:59:58;;;;;;;0.93;0.70;;;;;;;23.73;40.36;101623.44;4984199;28;20252;-68
2022/07/16 10:02:23;;;;;;;1.42;1.20;;;;;;;24.09;39.84;101622.31;4971862;28;20863;-67
2022/07/16 10:04:49;;;;;;;0.75;0.75;;;;;;;24.43;42.21;101617.75;4986702;28;20904;-67
2022/07/16 10:07:16;;;;;;;1.85;1.13;;;;;;;24.90;39.96;101623.16;4982379;28;20136;-68
2022/07/16 10:09:41;;;;;;;0.82;0.80;;;;;;;25.26;37.88;101621.00;4979327;28;20156;-68
2022/07/16 10:12:08;;;;;;;0.70;0.70;;;;;;;25.33;39.63;101629.97;4969156;28;21007;-70
2022/07/16 10:14:41;;;;;;;0.88;0.80;;;;;;;25.62;35.20;101636.75;4969547;28;20262;-67
2022/07/16 10:17:13;;;;;;;1.40;1.10;;;;;;;25.50;36.40;101638.47;4959201;28;20973;-69
2022/07/16 10:19:39;;;;;;;1.20;1.10;;;;;;;24.94;36.95;101642.53;4977231;28;20798;-69
2022/07/16 10:22:31;;;;;;;2.25;0.90;;;;;;;25.71;37.23;101640.84;4986866;28;20025;-69
2022/07/16 10:24:57;;;;;;;1.48;0.90;;;;;;;25.95;37.65;101641.16;4987517;28;20048;-69
2022/07/16 10:27:24;;;;;;;1.90;0.98;;;;;;;25.22;34.98;101642.25;4961707;28;20026;-66
2022/07/16 10:29:50;;;;;;;1.48;1.00;;;;;;;25.26;35.21;101643.50;4974918;28;20189;-67
2022/07/16 10:32:28;;;;;;;2.35;1.10;;;;;;;24.79;37.00;101637.34;4967118;28;20495;-68
2022/07/16 10:34:54;;;;;;;1.40;1.10;;;;;;;24.39;37.79;101645.44;4955218;28;20047;-67
2022/07/16 10:37:30;;;;;;;1.63;0.82;;;;;;;24.62;37.15;101654.03;4971582;28;20117;-66
2022/07/16 10:40:06;;;;;;;0.90;0.90;;;;;;;25.40;37.46;101648.91;4975134;28;20302;-69
2022/07/16 10:42:31;;;;;;;2.08;1.45;;;;;;;25.85;36.87;101651.66;4985101;28;20105;-69
2022/07/16 10:44:57;;;;;;;1.98;0.82;;;;;;;25.68;36.68;101646.72;4955014;28;20434;-68
2022/07/16 10:47:41;;;;;;;0.98;0.93;;;;;;;25.52;36.57;101658.03;4971989;28;20027;-68
2022/07/16 10:50:33;;;;;;;3.22;0.98;;;;;;;25.77;34.33;101647.28;4967509;28;20319;-69
2022/07/16 10:52:58;;;;;;;3.70;1.02;;;;;;;26.43;33.64;101652.56;4952188;28;20580;-68
2022/07/16 10:55:31;;;;;;;1.40;1.00;;;;;;;26.48;32.99;101647.28;4969381;28;20037;-69
2022/07/16 10:57:56;;;;;;;1.17;1.07;;;;;;;26.32;33.61;101652.19;4986228;28;20266;-68
2022/07/16 11:00:21;;;;;;;1.85;0.90;;;;;;;26.09;35.43;101658.22;4987129;28;20258;-66
2022/07/16 11:02:47;;;;;;;1.40;1.00;;;;;;;26.21;35.34;101655.63;4988269;28;20597;-68
2022/07/16 11:05:13;;;;;;;1.52;1.10;;;;;;;26.41;35.71;101655.47;4979783;28;20033;-69
2022/07/16 11:07:38;;;;;;;1.58;0.80;;;;;;;26.27;35.90;101659.34;4962633;28;20230;-68
2022/07/16 11:10:04;;;;;;;0.98;0.88;;;;;;;25.83;35.48;101661.88;4950231;28;20053;-68
2022/07/16 11:12:30;;;;;;;0.80;0.80;;;;;;;26.61;36.86;101657.19;4959608;28;20017;-69
2022/07/16 11:14:57;;;;;;;1.98;1.02;;;;;;;26.24;34.61;101660.59;4952293;28;20377;-69
2022/07/16 11:17:24;;;;;;;1.15;1.02;;;;;;;25.69;36.08;101667.38;4961915;28;20332;-68
2022/07/16 11:19:55;;;;;;;1.40;0.90;;;;;;;25.38;36.04;101665.38;4952570;28;20026;-67
2022/07/16 11:22:23;;;;;;;1.00;1.00;;;;;;;25.20;37.26;101655.22;4968394;28;20018;-70
2022/07/16 11:24:55;;;;;;;2.15;1.00;;;;;;;24.88;37.72;101662.34;4967468;28;20033;-68
2022/07/16 11:27:31;;;;;;;1.00;1.00;;;;;;;25.25;38.27;101658.09;4967100;28;20211;-69
2022/07/16 11:29:57;;;;;;;0.90;0.90;;;;;;;26.39;37.33;101666.56;4953459;28;20080;-68
2022/07/16 11:32:23;;;;;;;1.15;1.05;;;;;;;26.69;36.02;101671.38;4959137;28;20745;-69